Time;durP1;ratioP1;P1;durP2;ratioP2;P2;SDS_P1;SDS_P2;PMS_P1;PMS_P2;Temp;Humidity;BMP_temperature;BMP_pressure;BME280_temperature;BME280_humidity;BME280_pressure;Samples;Min_cycle;Max_cycle;Signal;HPM_P1;HPM_P2
2021/08/12 00:02:19;;;;;;;10.10;6.13;;;;;;;22.63;56.21;97043.91;5069741;28;20297;-64
2021/08/12 00:04:44;;;;;;;10.00;6.03;;;;;;;22.14;57.74;97044.94;5070298;28;20325;-64
2021/08/12 00:07:10;;;;;;;8.90;6.20;;;;;;;21.90;58.54;97046.72;5072352;28;20219;-64
2021/08/12 00:09:35;;;;;;;9.37;5.80;;;;;;;21.74;59.49;97045.53;5073834;28;20190;-65
2021/08/12 00:12:02;;;;;;;10.97;5.93;;;;;;;21.47;59.99;97037.88;5073705;28;20286;-64
2021/08/12 00:14:28;;;;;;;13.13;6.30;;;;;;;21.37;60.39;97041.09;5056666;28;20273;-64
2021/08/12 00:16:54;;;;;;;8.70;6.30;;;;;;;21.42;60.34;97038.56;5072402;28;20774;-63
2021/08/12 00:19:19;;;;;;;12.27;6.50;;;;;;;21.32;60.79;97047.09;5064252;28;20205;-64
2021/08/12 00:21:45;;;;;;;6.70;5.93;;;;;;;21.21;60.98;97044.41;5073882;28;20677;-64
2021/08/12 00:24:10;;;;;;;7.30;6.23;;;;;;;21.15;61.55;97040.78;5073263;28;20229;-65
2021/08/12 00:26:36;;;;;;;9.17;6.00;;;;;;;21.13;61.58;97037.53;5073744;28;20596;-64
2021/08/12 00:29:04;;;;;;;11.53;6.00;;;;;;;20.90;62.00;97032.88;5072384;28;20178;-64
2021/08/12 00:31:31;;;;;;;12.53;5.70;;;;;;;20.89;61.85;97032.06;5064582;28;20202;-63
2021/08/12 00:33:57;;;;;;;20.77;5.97;;;;;;;20.86;62.08;97027.97;5069003;28;20460;-65
2021/08/12 00:36:22;;;;;;;7.70;5.93;;;;;;;21.09;61.52;97031.00;5070189;28;20803;-64
2021/08/12 00:38:48;;;;;;;9.40;5.83;;;;;;;20.98;61.18;97030.72;5067927;28;20191;-65
2021/08/12 00:41:13;;;;;;;8.60;6.23;;;;;;;21.08;61.28;97024.88;5073087;28;20747;-65
2021/08/12 00:43:39;;;;;;;9.37;6.70;;;;;;;21.21;61.34;97023.06;5067288;28;20174;-65
2021/08/12 00:46:05;;;;;;;8.60;5.80;;;;;;;21.08;60.96;97019.53;5073210;28;20194;-64
2021/08/12 00:48:30;;;;;;;6.87;5.63;;;;;;;21.14;60.98;97026.63;5072557;28;20212;-65
2021/08/12 00:50:56;;;;;;;6.97;5.83;;;;;;;21.11;60.68;97019.06;5071145;28;20203;-65
2021/08/12 00:53:22;;;;;;;7.93;6.60;;;;;;;21.27;60.78;97030.16;5072842;28;20203;-64
2021/08/12 00:55:47;;;;;;;9.67;6.07;;;;;;;21.55;59.94;97023.44;5073121;28;20186;-64
2021/08/12 00:58:14;;;;;;;7.40;5.70;;;;;;;21.51;59.53;97031.06;5073001;28;20193;-66
2021/08/12 01:00:44;;;;;;;12.20;6.87;;;;;;;21.29;60.35;97030.75;5072736;28;20302;-66
2021/08/12 01:03:14;;;;;;;15.20;6.10;;;;;;;21.08;60.74;97026.72;5072975;28;20909;-65
2021/08/12 01:05:45;;;;;;;7.17;6.00;;;;;;;21.04;61.26;97033.53;5072867;28;20432;-65
2021/08/12 01:08:45;;;;;;;10.27;5.80;;;;;;;21.02;61.31;97031.91;5072896;28;20456;-66
2021/08/12 01:11:38;;;;;;;7.57;5.50;;;;;;;21.31;60.96;97040.13;5055680;28;20511;-65
2021/08/12 01:14:31;;;;;;;7.90;5.53;;;;;;;21.48;59.70;97042.19;5066552;28;20519;-65
2021/08/12 01:17:01;;;;;;;7.60;5.83;;;;;;;21.44;59.47;97043.66;5071405;28;20413;-66
2021/08/12 01:20:00;;;;;;;7.60;6.10;;;;;;;21.33;60.32;97043.41;5063412;28;20478;-65
2021/08/12 01:22:25;;;;;;;14.83;5.77;;;;;;;21.50;60.33;97048.09;5071521;28;20521;-65
2021/08/12 01:24:58;;;;;;;7.60;5.57;;;;;;;21.68;58.14;97041.94;5071522;28;20504;-65
2021/08/12 01:27:30;;;;;;;6.53;5.37;;;;;;;21.96;58.69;97045.00;5072599;28;20797;-65
2021/08/12 01:30:00;;;;;;;5.43;4.90;;;;;;;22.40;57.59;97045.53;5067096;28;20413;-65
2021/08/12 01:32:27;;;;;;;6.30;5.30;;;;;;;22.82;55.68;97036.56;5064193;28;20496;-65
2021/08/12 01:34:58;;;;;;;7.70;5.60;;;;;;;23.14;54.38;97039.63;5072417;28;20427;-65
2021/08/12 01:37:25;;;;;;;8.40;5.23;;;;;;;23.37;54.04;97037.94;5072372;28;20443;-65
2021/08/12 01:39:51;;;;;;;5.90;4.47;;;;;;;23.55;52.87;97036.94;5065641;28;20921;-65
2021/08/12 01:42:17;;;;;;;6.57;5.50;;;;;;;23.29;52.63;97044.47;5069290;28;20836;-65
2021/08/12 01:44:44;;;;;;;5.80;5.20;;;;;;;22.76;54.77;97038.31;5066433;28;20421;-65
2021/08/12 01:47:10;;;;;;;7.30;5.50;;;;;;;22.48;55.75;97041.72;5070923;28;20282;-65
2021/08/12 01:49:38;;;;;;;6.47;5.33;;;;;;;22.59;55.85;97040.06;5072484;28;20428;-65
2021/08/12 01:52:04;;;;;;;5.47;4.97;;;;;;;22.90;54.83;97032.72;5071861;28;20453;-65
2021/08/12 01:54:30;;;;;;;5.67;5.10;;;;;;;23.16;54.30;97032.19;5070559;28;20417;-65
2021/08/12 01:56:56;;;;;;;7.20;5.20;;;;;;;23.36;53.24;97028.28;5071662;28;20429;-65
2021/08/12 01:59:24;;;;;;;11.90;5.40;;;;;;;23.25;53.89;97029.16;5067873;28;20423;-65
2021/08/12 02:01:52;;;;;;;5.77;5.27;;;;;;;23.29;52.93;97036.47;5072027;28;20259;-65
2021/08/12 02:04:18;;;;;;;9.70;5.37;;;;;;;23.14;53.61;97028.94;5071547;28;20416;-66
2021/08/12 02:06:44;;;;;;;9.13;5.10;;;;;;;22.91;54.04;97034.34;5071995;28;20724;-65
2021/08/12 02:09:09;;;;;;;7.70;5.57;;;;;;;22.75;54.57;97023.34;5070723;28;20178;-65
2021/08/12 02:11:35;;;;;;;5.83;4.73;;;;;;;22.76;55.14;97024.97;5072332;28;20850;-65
2021/08/12 02:14:02;;;;;;;4.93;4.53;;;;;;;23.04;54.09;97031.41;5066419;28;20568;-65
2021/08/12 02:16:27;;;;;;;10.67;5.93;;;;;;;22.94;53.34;97023.16;5056007;28;20178;-65
2021/08/12 02:18:53;;;;;;;8.43;5.60;;;;;;;22.78;54.89;97033.56;5065795;28;20955;-65
2021/08/12 02:21:25;;;;;;;5.67;5.17;;;;;;;22.95;54.36;97024.78;5077448;28;20203;-64
2021/08/12 02:24:01;;;;;;;6.70;5.23;;;;;;;22.99;53.35;97020.59;5070725;28;20227;-66
2021/08/12 02:26:31;;;;;;;7.90;5.90;;;;;;;22.76;54.03;97019.63;5067751;28;20486;-66
2021/08/12 02:28:57;;;;;;;7.17;6.00;;;;;;;22.43;55.13;97018.38;5070756;28;20798;-66
2021/08/12 02:31:24;;;;;;;6.83;6.13;;;;;;;22.32;56.52;97016.47;5070423;28;20444;-65
2021/08/12 02:33:50;;;;;;;10.33;5.40;;;;;;;22.17;56.50;97020.47;5061828;28;20213;-64
2021/08/12 02:36:16;;;;;;;8.80;5.60;;;;;;;22.14;57.22;97020.91;5065688;28;20428;-64
2021/08/12 02:38:44;;;;;;;8.10;5.70;;;;;;;22.06;56.46;97018.56;5057922;28;20434;-64
2021/08/12 02:41:13;;;;;;;8.43;6.00;;;;;;;21.98;57.89;97024.25;5071900;28;20464;-64
2021/08/12 02:43:40;;;;;;;7.13;6.07;;;;;;;22.12;56.03;97023.00;5064814;28;20413;-64
2021/08/12 02:46:07;;;;;;;7.77;6.73;;;;;;;21.91;57.07;97019.84;5061853;28;20449;-64
2021/08/12 02:48:33;;;;;;;8.80;6.37;;;;;;;21.61;57.91;97018.03;5050675;28;20417;-64
2021/08/12 02:51:00;;;;;;;9.50;6.67;;;;;;;21.42;59.21;97013.78;5069469;28;20452;-64
2021/08/12 02:53:29;;;;;;;8.43;6.40;;;;;;;21.40;59.97;97010.53;5067585;28;20457;-64
2021/08/12 02:55:56;;;;;;;11.60;6.30;;;;;;;21.52;59.27;97011.38;5059495;28;20429;-65
2021/08/12 02:58:22;;;;;;;7.03;5.87;;;;;;;21.37;58.66;97017.09;5070122;28;20416;-65
2021/08/12 03:00:49;;;;;;;8.80;6.57;;;;;;;21.28;59.27;97015.81;5069622;28;20464;-64
2021/08/12 03:03:16;;;;;;;12.87;5.93;;;;;;;21.54;58.89;97011.97;5070371;28;20428;-67
2021/08/12 03:05:42;;;;;;;7.93;6.53;;;;;;;21.97;57.22;97015.44;5069765;28;20425;-66
2021/08/12 03:08:12;;;;;;;7.30;6.07;;;;;;;21.94;57.08;97010.56;5070768;28;20961;-66
2021/08/12 03:10:39;;;;;;;9.90;6.00;;;;;;;22.01;56.78;97007.78;5069608;28;20190;-65
2021/08/12 03:13:04;;;;;;;8.60;5.73;;;;;;;22.08;56.59;97001.31;5058615;28;20872;-65
2021/08/12 03:15:30;;;;;;;7.07;6.00;;;;;;;22.06;56.23;96995.38;5070541;28;20424;-66
2021/08/12 03:17:56;;;;;;;13.63;6.93;;;;;;;22.09;56.58;96999.44;5070546;28;20174;-66
2021/08/12 03:20:26;;;;;;;9.10;6.27;;;;;;;22.04;57.61;96997.47;5061172;28;20542;-65
2021/08/12 03:22:53;;;;;;;6.23;5.63;;;;;;;22.04;57.50;96999.34;5070803;28;20649;-67
2021/08/12 03:25:19;;;;;;;8.70;5.97;;;;;;;22.04;57.05;96994.00;5069091;28;20542;-65
2021/08/12 03:27:44;;;;;;;10.03;6.20;;;;;;;21.95;57.24;96996.19;5070766;28;20421;-65
2021/08/12 03:30:10;;;;;;;12.47;7.00;;;;;;;21.88;56.66;96996.28;5070525;28;20327;-66
2021/08/12 03:32:36;;;;;;;8.63;7.07;;;;;;;21.75;57.29;96996.50;5056389;28;20271;-65
2021/08/12 03:35:02;;;;;;;19.03;7.00;;;;;;;21.60;57.45;96989.75;5044338;28;20214;-66
2021/08/12 03:37:27;;;;;;;9.63;6.27;;;;;;;21.51;58.26;96985.75;5058669;28;20171;-71
2021/08/12 03:39:53;;;;;;;8.77;7.00;;;;;;;21.46;58.67;96996.28;5050799;28;20916;-67
2021/08/12 03:42:19;;;;;;;12.20;6.70;;;;;;;21.46;58.14;96993.63;5053126;28;20191;-67
2021/08/12 03:44:44;;;;;;;6.83;6.00;;;;;;;21.46;58.82;96991.78;5054005;28;20186;-67
2021/08/12 03:47:10;;;;;;;7.97;6.63;;;;;;;21.46;58.55;96998.94;5054576;28;20190;-67
2021/08/12 03:49:35;;;;;;;8.17;6.30;;;;;;;21.39;58.42;96993.72;5054575;28;20673;-67
2021/08/12 03:52:02;;;;;;;12.70;7.50;;;;;;;21.33;58.42;97000.75;5056707;28;20217;-69
2021/08/12 03:54:27;;;;;;;9.63;6.03;;;;;;;21.35;59.52;96999.72;5045795;28;20179;-68
2021/08/12 03:56:53;;;;;;;8.73;6.87;;;;;;;21.36;58.91;97004.81;5054473;28;20756;-67
2021/08/12 03:59:21;;;;;;;8.80;6.20;;;;;;;21.30;59.38;97001.19;5053887;28;20213;-67
2021/08/12 04:01:46;;;;;;;6.53;5.83;;;;;;;21.42;59.08;97009.25;5054515;28;20207;-67
2021/08/12 04:04:12;;;;;;;6.63;5.73;;;;;;;21.75;58.44;97007.16;5053973;28;20421;-68
2021/08/12 04:06:37;;;;;;;10.30;5.97;;;;;;;22.21;56.58;97010.91;5054244;28;20182;-67
2021/08/12 04:09:03;;;;;;;8.70;5.50;;;;;;;22.57;56.11;97004.78;5054218;28;20183;-68
2021/08/12 04:11:28;;;;;;;16.77;6.93;;;;;;;22.82;56.71;97007.97;5062211;28;20199;-67
2021/08/12 04:13:54;;;;;;;7.97;6.43;;;;;;;22.75;54.18;97014.50;5053762;28;20198;-69
2021/08/12 04:16:19;;;;;;;11.97;6.70;;;;;;;21.96;55.63;97013.81;5065197;28;20213;-68
2021/08/12 04:18:45;;;;;;;7.00;6.30;;;;;;;21.47;57.39;97016.56;5052827;28;20225;-68
2021/08/12 04:21:11;;;;;;;15.97;6.30;;;;;;;21.29;57.33;97020.09;5048804;28;20203;-69
2021/08/12 04:23:36;;;;;;;11.10;6.77;;;;;;;21.12;57.74;97010.06;5052165;28;20715;-68
2021/08/12 04:26:03;;;;;;;11.27;7.87;;;;;;;20.95;58.55;97012.53;5044028;28;20190;-69
2021/08/12 04:28:29;;;;;;;8.00;5.77;;;;;;;20.87;58.95;97010.16;5043034;28;20183;-69
2021/08/12 04:30:54;;;;;;;7.37;6.63;;;;;;;20.79;59.10;97008.63;5060586;28;20887;-68
2021/08/12 04:33:20;;;;;;;9.50;7.63;;;;;;;20.73;59.62;97001.47;5054489;28;20290;-69
2021/08/12 04:35:45;;;;;;;13.10;6.87;;;;;;;20.66;59.95;96998.91;5059738;28;20187;-71
2021/08/12 04:38:11;;;;;;;8.40;6.90;;;;;;;20.64;60.49;97008.13;5053494;28;20190;-69
2021/08/12 04:40:37;;;;;;;11.80;7.20;;;;;;;20.63;60.71;97010.00;5065254;28;20202;-68
2021/08/12 04:43:03;;;;;;;7.37;6.37;;;;;;;20.64;60.36;97008.13;5056882;28;20179;-72
2021/08/12 04:45:28;;;;;;;11.57;7.80;;;;;;;20.61;60.47;97006.75;5053639;28;20179;-68
2021/08/12 04:48:01;;;;;;;11.17;7.77;;;;;;;20.64;60.46;96998.31;5053830;28;20417;-70
2021/08/12 04:50:27;;;;;;;9.23;7.20;;;;;;;20.68;60.70;96994.16;5053628;28;20186;-68
2021/08/12 04:52:52;;;;;;;9.07;7.17;;;;;;;20.73;60.54;96998.81;5054797;28;20441;-70
2021/08/12 04:55:18;;;;;;;9.33;7.30;;;;;;;20.79;60.58;96997.16;5054127;28;20182;-68
2021/08/12 04:57:43;;;;;;;15.17;7.37;;;;;;;20.81;60.53;97003.06;5053647;28;20179;-68
2021/08/12 05:00:09;;;;;;;8.37;7.00;;;;;;;20.92;60.64;97010.28;5053659;28;20275;-69
2021/08/12 05:02:35;;;;;;;8.57;7.07;;;;;;;21.04;60.19;97009.56;5054038;28;20541;-71
2021/08/12 05:05:01;;;;;;;10.83;7.63;;;;;;;21.17;59.74;97006.75;5055208;28;20262;-68
2021/08/12 05:07:26;;;;;;;10.60;7.63;;;;;;;21.28;59.70;97002.47;5053368;28;20182;-68
2021/08/12 05:09:52;;;;;;;13.63;8.63;;;;;;;21.28;59.50;97003.31;5061289;28;20418;-69
2021/08/12 05:12:21;;;;;;;13.17;8.93;;;;;;;21.35;59.15;97007.72;5052672;28;20268;-70
2021/08/12 05:14:50;;;;;;;13.20;10.37;;;;;;;21.40;58.93;96999.88;5051442;28;20764;-68
2021/08/12 05:17:15;;;;;;;13.50;8.13;;;;;;;21.51;58.94;97011.59;5052918;28;20861;-71
2021/08/12 05:19:43;;;;;;;14.93;9.07;;;;;;;21.56;58.77;97006.41;5050054;28;20413;-68
2021/08/12 05:22:09;;;;;;;12.13;8.30;;;;;;;21.56;58.61;97009.84;5063678;28;20206;-69
2021/08/12 05:24:35;;;;;;;11.43;8.50;;;;;;;21.59;58.89;97016.63;5065455;28;20428;-69
2021/08/12 05:27:00;;;;;;;15.10;8.63;;;;;;;21.60;59.00;97008.41;5059096;28;21201;-69
2021/08/12 05:29:26;;;;;;;10.20;8.17;;;;;;;21.62;59.08;97010.84;5053346;28;20273;-70
2021/08/12 05:31:52;;;;;;;11.97;8.40;;;;;;;21.63;58.92;97010.63;5051431;28;20198;-68
2021/08/12 05:34:17;;;;;;;11.63;8.30;;;;;;;21.65;59.09;97017.59;5040331;28;20204;-69
2021/08/12 05:36:43;;;;;;;13.60;8.40;;;;;;;21.60;58.77;97027.06;5052910;28;20183;-69
2021/08/12 05:39:08;;;;;;;14.10;9.13;;;;;;;21.57;59.03;97011.50;5052410;28;20225;-68
2021/08/12 05:41:34;;;;;;;11.47;8.07;;;;;;;21.62;58.96;97025.00;5052552;28;20871;-68
2021/08/12 05:43:59;;;;;;;11.80;7.57;;;;;;;21.71;58.72;97033.47;5050471;28;20182;-69
2021/08/12 05:46:25;;;;;;;12.20;7.47;;;;;;;21.84;58.44;97031.66;5070524;28;20269;-70
2021/08/12 05:48:50;;;;;;;11.00;8.50;;;;;;;22.05;58.62;97038.31;5067704;28;20539;-69
2021/08/12 05:51:16;;;;;;;11.50;8.10;;;;;;;22.45;57.85;97026.97;5064058;28;20209;-68
2021/08/12 05:53:42;;;;;;;9.83;8.03;;;;;;;22.96;56.61;97031.75;5070706;28;20267;-71
2021/08/12 05:56:07;;;;;;;10.93;7.97;;;;;;;23.33;55.58;97035.97;5072251;28;20604;-71
2021/08/12 05:58:35;;;;;;;12.10;8.07;;;;;;;23.78;54.13;97035.19;5072512;28;20212;-71
2021/08/12 06:01:00;;;;;;;14.63;7.67;;;;;;;24.26;52.75;97037.59;5072815;28;20252;-70
2021/08/12 06:03:26;;;;;;;14.30;7.90;;;;;;;24.37;51.31;97044.72;5063124;28;20817;-70
2021/08/12 06:05:57;;;;;;;18.30;8.10;;;;;;;24.27;51.42;97045.38;5065951;28;20179;-70
2021/08/12 06:08:23;;;;;;;15.60;6.90;;;;;;;24.14;51.94;97043.00;5071663;28;20625;-69
2021/08/12 06:10:49;;;;;;;8.30;6.97;;;;;;;24.03;52.65;97042.84;5066547;28;20446;-70
2021/08/12 06:13:14;;;;;;;9.87;7.33;;;;;;;23.95;52.68;97043.22;5046189;28;20203;-70
2021/08/12 06:15:40;;;;;;;9.20;7.57;;;;;;;23.93;53.28;97042.66;5064352;28;20182;-69
2021/08/12 06:18:07;;;;;;;8.70;7.30;;;;;;;24.02;52.91;97041.22;5072238;28;20178;-69
2021/08/12 06:20:33;;;;;;;12.67;7.47;;;;;;;24.07;52.71;97035.94;5061710;28;20681;-71
2021/08/12 06:23:00;;;;;;;13.23;7.50;;;;;;;24.16;52.65;97036.34;5035196;28;20516;-69
2021/08/12 06:25:26;;;;;;;10.07;6.90;;;;;;;24.24;52.23;97029.78;5070292;28;20658;-70
2021/08/12 06:27:52;;;;;;;13.23;6.53;;;;;;;24.24;52.24;97037.81;5069427;28;20417;-70
2021/08/12 06:30:17;;;;;;;10.40;6.17;;;;;;;24.30;52.13;97033.34;5070101;28;20540;-69
2021/08/12 06:32:43;;;;;;;10.63;6.87;;;;;;;24.28;51.65;97028.25;5028908;28;20203;-70
2021/08/12 06:35:11;;;;;;;10.93;6.60;;;;;;;24.31;51.91;97013.56;5073420;28;20178;-69
2021/08/12 06:37:44;;;;;;;17.10;7.60;;;;;;;24.36;51.63;97022.47;5064278;28;20201;-69
2021/08/12 06:40:10;;;;;;;12.17;6.17;;;;;;;24.63;51.24;97011.06;5063272;28;20506;-70
2021/08/12 06:42:36;;;;;;;12.80;5.50;;;;;;;24.82;51.28;97016.16;5061876;28;20435;-71
2021/08/12 06:45:02;;;;;;;19.53;6.30;;;;;;;25.07;50.20;97018.31;5064170;28;20435;-68
2021/08/12 06:47:28;;;;;;;10.90;6.47;;;;;;;25.22;50.50;97016.88;5071623;28;20708;-69
2021/08/12 06:49:53;;;;;;;7.20;6.10;;;;;;;25.49;49.64;97016.91;5071644;28;20423;-69
2021/08/12 06:52:19;;;;;;;9.93;6.57;;;;;;;25.68;49.36;97024.59;5071418;28;20197;-70
2021/08/12 06:54:45;;;;;;;9.40;6.70;;;;;;;25.81;49.00;97024.19;5071844;28;20721;-70
2021/08/12 06:57:10;;;;;;;11.20;6.23;;;;;;;26.04;48.17;97036.44;5062316;28;20222;-70
2021/08/12 06:59:36;;;;;;;9.17;6.03;;;;;;;26.40;47.20;97035.94;5064530;28;20548;-69
2021/08/12 07:02:01;;;;;;;9.40;6.10;;;;;;;26.47;47.50;97031.13;5069425;28;20572;-69
2021/08/12 07:04:27;;;;;;;11.23;5.60;;;;;;;26.65;46.85;97040.63;5054477;28;20178;-68
2021/08/12 07:06:53;;;;;;;13.90;6.10;;;;;;;26.71;46.54;97036.13;5053287;28;20633;-69
2021/08/12 07:09:18;;;;;;;10.13;5.57;;;;;;;26.66;46.39;97044.13;5071142;28;20198;-68
2021/08/12 07:11:47;;;;;;;6.37;5.73;;;;;;;26.20;47.88;97042.78;5064136;28;20240;-71
2021/08/12 07:14:12;;;;;;;5.17;4.60;;;;;;;26.42;47.77;97041.84;5042736;28;20215;-68
2021/08/12 07:16:38;;;;;;;9.23;6.00;;;;;;;26.54;47.83;97041.63;5071433;28;20424;-69
2021/08/12 07:19:03;;;;;;;6.23;5.63;;;;;;;26.75;47.38;97047.94;5061231;28;20182;-69
2021/08/12 07:21:29;;;;;;;6.53;5.87;;;;;;;26.82;47.11;97045.88;5071386;28;20288;-68
2021/08/12 07:23:54;;;;;;;9.50;5.80;;;;;;;26.95;46.55;97043.78;5071413;28;20178;-68
2021/08/12 07:26:20;;;;;;;7.63;5.40;;;;;;;27.12;45.90;97043.56;5063050;28;20236;-71
2021/08/12 07:28:46;;;;;;;7.37;5.50;;;;;;;27.29;45.77;97048.75;5071170;28;20190;-69
2021/08/12 07:31:14;;;;;;;7.27;5.60;;;;;;;27.67;45.34;97040.50;5069873;28;20221;-68
2021/08/12 07:33:39;;;;;;;8.13;5.30;;;;;;;27.70;45.44;97037.28;5070827;28;20900;-69
2021/08/12 07:36:06;;;;;;;6.80;5.43;;;;;;;27.58;45.34;97041.03;5052771;28;20460;-68
2021/08/12 07:38:32;;;;;;;7.13;5.37;;;;;;;27.65;45.06;97038.09;5068887;28;20509;-68
2021/08/12 07:40:58;;;;;;;6.23;5.43;;;;;;;27.67;45.02;97030.56;5068237;28;20528;-69
2021/08/12 07:43:25;;;;;;;15.40;6.70;;;;;;;27.47;45.99;97033.22;5053621;28;20728;-68
2021/08/12 07:45:50;;;;;;;6.47;5.03;;;;;;;27.76;44.01;97033.53;5071129;28;20495;-68
2021/08/12 07:48:16;;;;;;;6.30;4.73;;;;;;;27.75;43.64;97030.00;5070373;28;20520;-70
2021/08/12 07:50:42;;;;;;;12.93;5.80;;;;;;;28.00;43.50;97031.09;5070563;28;20232;-69
2021/08/12 07:53:07;;;;;;;8.40;5.10;;;;;;;28.30;42.63;97032.19;5068982;28;20206;-71
2021/08/12 07:55:33;;;;;;;11.90;5.10;;;;;;;28.53;42.32;97035.38;5070631;28;20482;-68
2021/08/12 07:57:59;;;;;;;11.27;5.70;;;;;;;28.50;42.79;97038.59;5070713;28;20178;-69
2021/08/12 08:00:25;;;;;;;6.00;5.40;;;;;;;28.65;42.71;97030.50;5054086;28;20181;-69
2021/08/12 08:02:50;;;;;;;6.63;5.50;;;;;;;28.63;42.34;97024.56;5070885;28;20182;-69
2021/08/12 08:05:17;;;;;;;5.97;5.20;;;;;;;28.83;42.15;97028.31;5070459;28;20187;-69
2021/08/12 08:07:43;;;;;;;8.00;5.03;;;;;;;28.79;42.63;97041.56;5052843;28;20198;-69
2021/08/12 08:10:09;;;;;;;11.83;5.10;;;;;;;28.73;41.96;97033.75;5062436;28;20416;-69
2021/08/12 08:12:35;;;;;;;6.00;4.70;;;;;;;28.69;42.18;97032.66;5065767;28;20465;-69
2021/08/12 08:15:00;;;;;;;8.80;4.33;;;;;;;29.08;41.32;97034.69;5059057;28;20421;-69
2021/08/12 08:17:26;;;;;;;11.03;5.17;;;;;;;29.09;41.15;97025.53;5070836;28;20703;-69
2021/08/12 08:19:52;;;;;;;7.30;5.53;;;;;;;28.91;41.77;97035.03;5074903;28;20232;-69
2021/08/12 08:22:17;;;;;;;9.17;4.80;;;;;;;29.24;41.00;97033.53;5072105;28;20281;-70
2021/08/12 08:24:43;;;;;;;7.30;4.87;;;;;;;29.28;40.90;97033.78;5070647;28;20179;-69
2021/08/12 08:27:09;;;;;;;6.80;4.87;;;;;;;29.65;39.49;97031.69;5073180;28;20691;-68
2021/08/12 08:29:34;;;;;;;8.60;5.77;;;;;;;29.83;39.54;97031.03;5074508;28;20497;-69
2021/08/12 08:32:00;;;;;;;5.07;4.57;;;;;;;29.99;39.65;97028.25;5058158;28;20289;-69
2021/08/12 08:34:25;;;;;;;6.47;4.90;;;;;;;30.18;39.54;97022.94;5071707;28;20221;-69
2021/08/12 08:36:51;;;;;;;9.97;5.47;;;;;;;30.05;39.73;97023.59;5073120;28;20597;-69
2021/08/12 08:39:16;;;;;;;6.20;4.60;;;;;;;30.19;39.89;97025.34;5067761;28;20288;-69
2021/08/12 08:41:42;;;;;;;10.63;5.40;;;;;;;30.03;40.03;97026.56;5067716;28;20246;-70
2021/08/12 08:44:08;;;;;;;6.07;5.10;;;;;;;30.06;40.10;97025.19;5055547;28;20596;-70
2021/08/12 08:46:35;;;;;;;7.60;4.90;;;;;;;30.03;40.28;97026.56;5073907;28;20444;-68
2021/08/12 08:49:01;;;;;;;11.83;6.07;;;;;;;30.24;39.73;97018.31;5072307;28;20865;-70
2021/08/12 08:51:27;;;;;;;8.70;4.80;;;;;;;30.10;39.88;97015.44;5072738;28;20470;-70
2021/08/12 08:53:53;;;;;;;6.40;4.70;;;;;;;30.80;39.02;97033.94;5074285;28;20464;-71
2021/08/12 08:56:19;;;;;;;7.77;5.07;;;;;;;30.63;38.91;97029.00;5075219;28;20225;-71
2021/08/12 08:58:46;;;;;;;5.23;4.73;;;;;;;31.08;37.73;97033.34;5075296;28;20424;-70
2021/08/12 09:01:11;;;;;;;12.73;5.43;;;;;;;31.04;37.99;97032.31;5073274;28;20533;-71
2021/08/12 09:03:37;;;;;;;6.17;5.33;;;;;;;31.28;37.97;97024.16;5074754;28;20420;-70
2021/08/12 09:06:05;;;;;;;9.70;5.27;;;;;;;31.06;38.90;97030.13;5075375;28;20319;-70
2021/08/12 09:08:31;;;;;;;13.40;5.70;;;;;;;31.29;38.42;97028.50;5056323;28;20821;-69
2021/08/12 09:10:57;;;;;;;5.90;4.93;;;;;;;30.75;37.98;97031.28;5070213;28;20452;-70
2021/08/12 09:13:23;;;;;;;6.80;4.80;;;;;;;30.62;39.33;97021.19;5048710;28;20198;-70
2021/08/12 09:15:48;;;;;;;10.50;5.00;;;;;;;30.55;39.69;97026.94;5073785;28;20562;-69
2021/08/12 09:18:25;;;;;;;7.70;6.20;;;;;;;31.05;38.58;97013.09;5071798;28;20193;-71
2021/08/12 09:20:56;;;;;;;6.60;5.00;;;;;;;30.94;38.99;97017.00;5061846;28;20259;-70
2021/08/12 09:23:29;;;;;;;6.43;5.40;;;;;;;30.99;38.98;97025.06;5072168;28;20788;-69
2021/08/12 09:25:56;;;;;;;9.77;4.83;;;;;;;31.15;38.55;97016.78;5066262;28;20418;-69
2021/08/12 09:28:31;;;;;;;7.63;4.87;;;;;;;31.19;38.31;97009.69;5070624;28;20429;-69
2021/08/12 09:30:57;;;;;;;10.83;5.43;;;;;;;31.58;37.40;97014.00;5072642;28;20456;-69
2021/08/12 09:33:23;;;;;;;5.80;4.27;;;;;;;31.49;37.03;97007.66;5072633;28;20526;-70
2021/08/12 09:35:48;;;;;;;12.30;5.50;;;;;;;32.15;36.32;97005.81;5072953;28;20214;-69
2021/08/12 09:38:15;;;;;;;8.50;4.90;;;;;;;32.16;34.74;97007.41;5061671;28;20203;-70
2021/08/12 09:40:43;;;;;;;10.00;4.57;;;;;;;32.02;35.42;97001.16;5066074;28;20213;-70
2021/08/12 09:43:10;;;;;;;7.03;4.90;;;;;;;32.43;35.58;97005.06;5055897;28;20438;-69
2021/08/12 09:45:39;;;;;;;8.60;4.90;;;;;;;32.30;35.07;97010.16;5070933;28;20421;-69
2021/08/12 09:48:23;;;;;;;5.57;5.07;;;;;;;32.16;35.23;97012.00;5070976;28;20440;-69
2021/08/12 09:51:06;;;;;;;12.33;5.00;;;;;;;31.91;34.84;97016.75;5072342;28;20951;-69
2021/08/12 09:53:33;;;;;;;10.53;5.40;;;;;;;32.43;34.14;97018.63;5056979;28;20455;-69
2021/08/12 09:56:12;;;;;;;7.07;5.50;;;;;;;32.69;33.91;97018.13;5072804;28;20434;-71
2021/08/12 09:58:38;;;;;;;9.93;5.10;;;;;;;32.94;33.44;97019.56;5054240;28;20433;-69
2021/08/12 10:01:25;;;;;;;8.60;5.10;;;;;;;32.83;32.87;97012.75;5069127;28;20520;-69
2021/08/12 10:03:51;;;;;;;5.80;4.60;;;;;;;32.76;33.23;97013.13;5072578;28;20417;-70
2021/08/12 10:06:22;;;;;;;5.50;4.83;;;;;;;32.60;33.45;97010.72;5072419;28;20912;-69
2021/08/12 10:08:48;;;;;;;4.87;4.33;;;;;;;33.05;32.35;97020.16;5072504;28;20181;-69
2021/08/12 10:11:28;;;;;;;9.17;4.90;;;;;;;32.70;34.42;97008.91;5072204;28;20448;-69
2021/08/12 10:14:04;;;;;;;5.80;4.53;;;;;;;31.97;35.08;97012.88;5055256;28;20456;-68
2021/08/12 10:16:32;;;;;;;7.47;4.90;;;;;;;31.82;35.94;97013.94;5072062;28;20424;-68
2021/08/12 10:18:59;;;;;;;6.70;4.80;;;;;;;31.60;34.96;97011.81;5064055;28;20441;-70
2021/08/12 10:21:25;;;;;;;8.10;5.67;;;;;;;31.62;35.74;97012.34;5072107;28;20443;-70
2021/08/12 10:23:54;;;;;;;7.20;5.20;;;;;;;32.29;33.83;97015.91;5062616;28;20452;-70
2021/08/12 10:26:20;;;;;;;10.93;5.43;;;;;;;32.54;33.80;97011.91;5070710;28;20992;-69
2021/08/12 10:28:49;;;;;;;10.60;5.40;;;;;;;32.71;33.26;97013.22;5071042;28;20447;-68
2021/08/12 10:31:24;;;;;;;7.40;4.90;;;;;;;32.87;33.77;97011.84;5065864;28;20548;-69
2021/08/12 10:33:50;;;;;;;8.90;5.80;;;;;;;32.79;34.23;97007.06;5068649;28;21044;-69
2021/08/12 10:36:17;;;;;;;5.57;5.07;;;;;;;33.19;33.69;97001.13;5054359;28;20958;-69
2021/08/12 10:38:43;;;;;;;7.17;4.50;;;;;;;33.22;33.41;96997.78;5046196;28;20919;-70
2021/08/12 10:41:09;;;;;;;9.07;5.30;;;;;;;32.89;34.02;97001.47;5072309;28;20452;-69
2021/08/12 10:43:35;;;;;;;8.10;5.30;;;;;;;32.96;34.00;96995.63;5055301;28;20220;-69
2021/08/12 10:46:03;;;;;;;8.03;5.20;;;;;;;33.47;33.80;96987.50;5071103;28;20273;-69
2021/08/12 10:48:29;;;;;;;7.00;4.80;;;;;;;33.52;33.68;96988.16;5072241;28;20417;-69
2021/08/12 10:51:07;;;;;;;7.43;5.63;;;;;;;33.44;33.64;96991.63;5072081;28;20436;-69
2021/08/12 10:53:34;;;;;;;12.17;5.43;;;;;;;33.99;33.31;96979.72;5052027;28;20547;-69
2021/08/12 10:56:13;;;;;;;8.23;5.50;;;;;;;34.09;32.04;96980.59;5062720;28;20472;-68
2021/08/12 10:58:42;;;;;;;9.20;5.50;;;;;;;33.64;34.00;96975.97;5060044;28;21079;-70
2021/08/12 11:01:10;;;;;;;9.20;5.53;;;;;;;33.63;33.29;96982.53;5071518;28;20445;-69
2021/08/12 11:03:43;;;;;;;11.10;5.63;;;;;;;33.35;33.93;96985.34;5072192;28;20473;-69
2021/08/12 11:06:16;;;;;;;12.30;5.40;;;;;;;33.41;33.66;96977.88;5054108;28;20475;-69
2021/08/12 11:08:52;;;;;;;5.47;5.00;;;;;;;33.59;33.48;96979.59;5062972;28;20434;-70
2021/08/12 11:11:21;;;;;;;9.80;5.57;;;;;;;32.99;34.63;96980.66;5062449;28;20441;-70
2021/08/12 11:13:47;;;;;;;5.87;5.27;;;;;;;33.74;33.05;96981.16;5055313;28;20617;-69
2021/08/12 11:16:13;;;;;;;9.10;5.00;;;;;;;33.29;33.31;96978.38;5072705;28;20421;-70
2021/08/12 11:18:44;;;;;;;7.83;5.57;;;;;;;33.79;33.19;96972.06;5046031;28;20426;-70
2021/08/12 11:21:32;;;;;;;8.30;5.70;;;;;;;33.85;32.98;96977.06;5066042;28;20214;-70
2021/08/12 11:24:22;;;;;;;8.40;6.23;;;;;;;33.86;32.80;96969.72;5070809;28;20463;-70
2021/08/12 11:26:47;;;;;;;8.10;5.57;;;;;;;34.21;32.10;96972.66;5061788;28;20414;-69
2021/08/12 11:29:22;;;;;;;10.27;5.87;;;;;;;34.36;31.89;96971.44;5072047;28;20795;-70
2021/08/12 11:31:48;;;;;;;7.27;5.23;;;;;;;34.32;32.05;96973.19;5065765;28;20206;-69
2021/08/12 11:34:23;;;;;;;10.83;5.33;;;;;;;34.00;33.08;96973.19;5069776;28;20472;-70